sensor_id;sensor_type;location;lat;lon;timestamp;pressure;altitude;pressure_sealevel;temperature;humidity
3082;BME280;1551;51.046;7.010;2023-03-15T00:01:26;100518.00;;;5.03;70.92
3082;BME280;1551;51.046;7.010;2023-03-15T00:04:15;100525.69;;;5.11;70.49
3082;BME280;1551;51.046;7.010;2023-03-15T00:07:04;100528.25;;;5.17;71.09
3082;BME280;1551;51.046;7.010;2023-03-15T00:09:54;100524.91;;;5.19;70.28
3082;BME280;1551;51.046;7.010;2023-03-15T00:12:43;100530.00;;;5.22;71.38
3082;BME280;1551;51.046;7.010;2023-03-15T00:15:32;100527.44;;;5.19;71.68
3082;BME280;1551;51.046;7.010;2023-03-15T00:18:21;100535.16;;;5.31;72.44
3082;BME280;1551;51.046;7.010;2023-03-15T00:21:10;100539.41;;;5.35;71.71
3082;BME280;1551;51.046;7.010;2023-03-15T00:24:00;100534.31;;;5.31;72.10
3082;BME280;1551;51.046;7.010;2023-03-15T00:26:49;100522.41;;;5.25;72.21
3082;BME280;1551;51.046;7.010;2023-03-15T00:29:38;100530.97;;;5.39;72.54
3082;BME280;1551;51.046;7.010;2023-03-15T00:32:27;100533.53;;;5.38;73.21
3082;BME280;1551;51.046;7.010;2023-03-15T00:35:16;100542.81;;;5.36;72.83
3082;BME280;1551;51.046;7.010;2023-03-15T00:38:06;100549.56;;;5.34;73.42
3082;BME280;1551;51.046;7.010;2023-03-15T00:40:55;100545.41;;;5.43;73.59
3082;BME280;1551;51.046;7.010;2023-03-15T00:43:45;100550.47;;;5.40;73.60
3082;BME280;1551;51.046;7.010;2023-03-15T00:46:34;100541.94;;;5.35;74.40
3082;BME280;1551;51.046;7.010;2023-03-15T00:49:23;100552.19;;;5.44;74.16
3082;BME280;1551;51.046;7.010;2023-03-15T00:52:12;100550.47;;;5.42;74.69
3082;BME280;1551;51.046;7.010;2023-03-15T00:55:01;100547.91;;;5.42;74.17
3082;BME280;1551;51.046;7.010;2023-03-15T00:57:50;100550.47;;;5.39;74.57
3082;BME280;1551;51.046;7.010;2023-03-15T01:00:39;100554.78;;;5.53;75.07
3082;BME280;1551;51.046;7.010;2023-03-15T01:03:31;100549.84;;;5.67;75.73
3082;BME280;1551;51.046;7.010;2023-03-15T01:06:23;100554.00;;;5.59;74.67
3082;BME280;1551;51.046;7.010;2023-03-15T01:09:13;100561.59;;;5.61;75.68
3082;BME280;1551;51.046;7.010;2023-03-15T01:12:02;100560.00;;;5.70;76.31
3082;BME280;1551;51.046;7.010;2023-03-15T01:14:54;100571.78;;;5.65;76.06
3082;BME280;1551;51.046;7.010;2023-03-15T01:17:44;100563.34;;;5.65;75.72
3082;BME280;1551;51.046;7.010;2023-03-15T01:20:34;100565.88;;;5.60;76.05
3082;BME280;1551;51.046;7.010;2023-03-15T01:23:23;100573.53;;;5.71;75.78
3082;BME280;1551;51.046;7.010;2023-03-15T01:26:13;100565.03;;;5.63;76.02
3082;BME280;1551;51.046;7.010;2023-03-15T01:29:03;100572.63;;;5.60;76.45
3082;BME280;1551;51.046;7.010;2023-03-15T01:31:52;100572.50;;;5.46;77.17
3082;BME280;1551;51.046;7.010;2023-03-15T01:34:41;100579.97;;;5.32;77.11
3082;BME280;1551;51.046;7.010;2023-03-15T01:37:30;100576.66;;;5.36;78.14
3082;BME280;1551;51.046;7.010;2023-03-15T01:40:21;100582.56;;;5.35;78.16
3082;BME280;1551;51.046;7.010;2023-03-15T01:43:14;100585.94;;;5.37;78.99
3082;BME280;1551;51.046;7.010;2023-03-15T01:46:13;100591.06;;;5.39;79.63
3082;BME280;1551;51.046;7.010;2023-03-15T01:52:10;100589.38;;;5.42;80.56
3082;BME280;1551;51.046;7.010;2023-03-15T01:55:21;100599.53;;;5.42;80.72
3082;BME280;1551;51.046;7.010;2023-03-15T01:58:27;100595.19;;;5.29;80.08
3082;BME280;1551;51.046;7.010;2023-03-15T02:01:18;100596.78;;;5.20;79.84
3082;BME280;1551;51.046;7.010;2023-03-15T02:04:15;100598.28;;;5.03;80.55
3082;BME280;1551;51.046;7.010;2023-03-15T02:07:08;100600.72;;;4.92;81.27
3082;BME280;1551;51.046;7.010;2023-03-15T02:10:01;100599.06;;;4.94;81.28
3082;BME280;1551;51.046;7.010;2023-03-15T02:12:55;100601.34;;;4.76;82.11
3082;BME280;1551;51.046;7.010;2023-03-15T02:15:46;100602.16;;;4.70;82.15
3082;BME280;1551;51.046;7.010;2023-03-15T02:18:40;100596.41;;;4.85;83.39
3082;BME280;1551;51.046;7.010;2023-03-15T02:21:58;100604.88;;;4.87;83.54
3082;BME280;1551;51.046;7.010;2023-03-15T02:25:05;100610.78;;;4.84;83.18
3082;BME280;1551;51.046;7.010;2023-03-15T02:27:58;100600.44;;;4.68;82.74
3082;BME280;1551;51.046;7.010;2023-03-15T02:30:47;100590.28;;;4.69;83.40
3082;BME280;1551;51.046;7.010;2023-03-15T02:33:43;100590.19;;;4.60;84.02
3082;BME280;1551;51.046;7.010;2023-03-15T02:36:35;100599.19;;;4.37;84.40
3082;BME280;1551;51.046;7.010;2023-03-15T02:39:24;100600.72;;;4.28;85.05
3082;BME280;1551;51.046;7.010;2023-03-15T02:42:15;100604.13;;;4.27;85.21
3082;BME280;1551;51.046;7.010;2023-03-15T02:45:06;100591.25;;;4.13;85.46
3082;BME280;1551;51.046;7.010;2023-03-15T02:47:56;100604.75;;;4.15;86.15
3082;BME280;1551;51.046;7.010;2023-03-15T02:50:46;100594.63;;;4.12;86.30
3082;BME280;1551;51.046;7.010;2023-03-15T02:53:34;100592.97;;;4.15;86.39
3082;BME280;1551;51.046;7.010;2023-03-15T02:56:23;100609.06;;;4.21;86.83
3082;BME280;1551;51.046;7.010;2023-03-15T02:59:12;100615.75;;;4.15;86.59
3082;BME280;1551;51.046;7.010;2023-03-15T03:02:02;100620.00;;;4.18;86.04
3082;BME280;1551;51.046;7.010;2023-03-15T03:04:51;100622.47;;;4.12;86.15
3082;BME280;1551;51.046;7.010;2023-03-15T03:07:41;100624.09;;;4.07;86.89
3082;BME280;1551;51.046;7.010;2023-03-15T03:10:30;100620.69;;;4.06;87.43
3082;BME280;1551;51.046;7.010;2023-03-15T03:13:22;100624.94;;;4.09;86.76
3082;BME280;1551;51.046;7.010;2023-03-15T03:16:11;100630.88;;;4.11;87.44
3082;BME280;1551;51.046;7.010;2023-03-15T03:19:00;100636.16;;;4.25;86.92
3082;BME280;1551;51.046;7.010;2023-03-15T03:21:53;100634.63;;;4.36;87.14
3082;BME280;1551;51.046;7.010;2023-03-15T03:24:42;100642.25;;;4.36;86.63
3082;BME280;1551;51.046;7.010;2023-03-15T03:27:33;100643.78;;;4.26;86.53
3082;BME280;1551;51.046;7.010;2023-03-15T03:30:27;100637.84;;;4.24;86.62
3082;BME280;1551;51.046;7.010;2023-03-15T03:33:16;100656.44;;;4.26;87.59
3082;BME280;1551;51.046;7.010;2023-03-15T03:36:06;100648.94;;;4.32;87.31
3082;BME280;1551;51.046;7.010;2023-03-15T03:38:55;100663.34;;;4.36;86.94
3082;BME280;1551;51.046;7.010;2023-03-15T03:41:45;100660.66;;;4.26;87.51
3082;BME280;1551;51.046;7.010;2023-03-15T03:44:35;100665.00;;;4.34;87.35
3082;BME280;1551;51.046;7.010;2023-03-15T03:47:24;100672.72;;;4.43;86.81
3082;BME280;1551;51.046;7.010;2023-03-15T03:50:13;100655.66;;;4.32;86.98
3082;BME280;1551;51.046;7.010;2023-03-15T03:53:02;100671.91;;;4.43;87.44
3082;BME280;1551;51.046;7.010;2023-03-15T03:55:55;100667.59;;;4.39;87.39
3082;BME280;1551;51.046;7.010;2023-03-15T03:58:45;100674.44;;;4.43;87.39
3082;BME280;1551;51.046;7.010;2023-03-15T04:01:40;100675.00;;;4.25;86.09
3082;BME280;1551;51.046;7.010;2023-03-15T04:04:30;100681.00;;;4.30;86.91
3082;BME280;1551;51.046;7.010;2023-03-15T04:07:20;100683.63;;;4.38;87.57
3082;BME280;1551;51.046;7.010;2023-03-15T04:10:10;100676.91;;;4.40;86.92
3082;BME280;1551;51.046;7.010;2023-03-15T04:13:03;100682.13;;;4.50;87.48
3082;BME280;1551;51.046;7.010;2023-03-15T04:15:52;100682.19;;;4.55;87.24
3082;BME280;1551;51.046;7.010;2023-03-15T04:18:46;100688.22;;;4.64;86.59
3082;BME280;1551;51.046;7.010;2023-03-15T04:21:35;100678.88;;;4.59;87.01
3082;BME280;1551;51.046;7.010;2023-03-15T04:25:00;100683.09;;;4.60;87.02
3082;BME280;1551;51.046;7.010;2023-03-15T04:28:08;100692.22;;;4.47;86.43
3082;BME280;1551;51.046;7.010;2023-03-15T04:31:16;100709.09;;;4.47;86.42
3082;BME280;1551;51.046;7.010;2023-03-15T04:34:24;100702.25;;;4.40;86.63
3082;BME280;1551;51.046;7.010;2023-03-15T04:37:44;100709.09;;;4.45;86.43
3082;BME280;1551;51.046;7.010;2023-03-15T04:40:42;100710.72;;;4.42;85.54
3082;BME280;1551;51.046;7.010;2023-03-15T04:44:06;100720.72;;;4.34;86.71
3082;BME280;1551;51.046;7.010;2023-03-15T04:47:16;100723.31;;;4.36;85.48
3082;BME280;1551;51.046;7.010;2023-03-15T04:50:34;100727.38;;;4.28;86.29
3082;BME280;1551;51.046;7.010;2023-03-15T04:53:42;100735.13;;;4.35;85.76
3082;BME280;1551;51.046;7.010;2023-03-15T04:56:51;100728.13;;;4.21;85.28
3082;BME280;1551;51.046;7.010;2023-03-15T05:00:05;100734.75;;;4.12;86.37
3082;BME280;1551;51.046;7.010;2023-03-15T05:02:58;100744.78;;;4.08;86.41
3082;BME280;1551;51.046;7.010;2023-03-15T05:06:08;100738.13;;;4.13;86.71
3082;BME280;1551;51.046;7.010;2023-03-15T05:09:00;100743.97;;;4.10;86.84
3082;BME280;1551;51.046;7.010;2023-03-15T05:12:08;100740.78;;;4.22;86.67
3082;BME280;1551;51.046;7.010;2023-03-15T05:15:22;100744.69;;;4.03;86.60
3082;BME280;1551;51.046;7.010;2023-03-15T05:18:32;100744.03;;;4.13;86.64
3082;BME280;1551;51.046;7.010;2023-03-15T05:21:47;100745.63;;;4.08;86.32
3082;BME280;1551;51.046;7.010;2023-03-15T05:24:48;100750.84;;;4.17;85.45
3082;BME280;1551;51.046;7.010;2023-03-15T05:28:06;100768.56;;;4.16;85.67
3082;BME280;1551;51.046;7.010;2023-03-15T05:31:14;100766.03;;;4.17;86.33
3082;BME280;1551;51.046;7.010;2023-03-15T05:34:16;100761.63;;;4.06;86.45
3082;BME280;1551;51.046;7.010;2023-03-15T05:37:22;100772.91;;;4.23;86.37
3082;BME280;1551;51.046;7.010;2023-03-15T05:40:44;100783.16;;;4.31;85.63
3082;BME280;1551;51.046;7.010;2023-03-15T05:43:56;100789.75;;;4.21;85.68
3082;BME280;1551;51.046;7.010;2023-03-15T05:46:57;100795.78;;;4.28;85.84
3082;BME280;1551;51.046;7.010;2023-03-15T05:49:56;100793.97;;;4.21;85.90
3082;BME280;1551;51.046;7.010;2023-03-15T05:53:04;100803.16;;;4.15;86.50
3082;BME280;1551;51.046;7.010;2023-03-15T05:56:11;100809.00;;;4.11;86.15
3082;BME280;1551;51.046;7.010;2023-03-15T05:59:13;100816.63;;;4.13;87.06
3082;BME280;1551;51.046;7.010;2023-03-15T06:02:28;100824.34;;;4.19;86.94
3082;BME280;1551;51.046;7.010;2023-03-15T06:05:34;100830.16;;;4.15;86.61
3082;BME280;1551;51.046;7.010;2023-03-15T06:08:26;100829.34;;;4.16;86.23
3082;BME280;1551;51.046;7.010;2023-03-15T06:11:17;100843.66;;;4.14;86.35
3082;BME280;1551;51.046;7.010;2023-03-15T06:14:05;100841.94;;;4.13;87.32
3082;BME280;1551;51.046;7.010;2023-03-15T06:17:10;100838.59;;;4.12;86.87
3082;BME280;1551;51.046;7.010;2023-03-15T06:20:00;100847.94;;;4.16;87.87
3082;BME280;1551;51.046;7.010;2023-03-15T06:22:50;100845.41;;;4.16;87.59
3082;BME280;1551;51.046;7.010;2023-03-15T06:25:53;100854.09;;;4.31;87.88
3082;BME280;1551;51.046;7.010;2023-03-15T06:28:43;100850.78;;;4.35;87.72
3082;BME280;1551;51.046;7.010;2023-03-15T06:31:33;100861.13;;;4.47;87.83
3082;BME280;1551;51.046;7.010;2023-03-15T06:34:25;100854.34;;;4.46;87.58
3082;BME280;1551;51.046;7.010;2023-03-15T06:37:15;100866.41;;;4.59;87.58
3082;BME280;1551;51.046;7.010;2023-03-15T06:40:05;100867.53;;;4.74;88.48
3082;BME280;1551;51.046;7.010;2023-03-15T06:43:00;100872.72;;;4.83;88.27
3082;BME280;1551;51.046;7.010;2023-03-15T06:45:54;100876.03;;;4.78;87.28
3082;BME280;1551;51.046;7.010;2023-03-15T06:48:44;100880.13;;;4.71;87.06
3082;BME280;1551;51.046;7.010;2023-03-15T06:51:34;100865.72;;;4.69;87.73
3082;BME280;1551;51.046;7.010;2023-03-15T06:54:25;100899.00;;;4.87;86.71
3082;BME280;1551;51.046;7.010;2023-03-15T06:57:14;100896.63;;;4.98;87.38
3082;BME280;1551;51.046;7.010;2023-03-15T07:00:03;100904.50;;;5.14;87.41
3082;BME280;1551;51.046;7.010;2023-03-15T07:02:59;100909.69;;;5.23;86.51
3082;BME280;1551;51.046;7.010;2023-03-15T07:05:48;100909.63;;;5.16;86.57
3082;BME280;1551;51.046;7.010;2023-03-15T07:08:40;100925.91;;;5.33;86.57
3082;BME280;1551;51.046;7.010;2023-03-15T07:11:29;100932.69;;;5.32;86.87
3082;BME280;1551;51.046;7.010;2023-03-15T07:14:18;100932.66;;;5.31;85.94
3082;BME280;1551;51.046;7.010;2023-03-15T07:17:08;100939.47;;;5.32;86.43
3082;BME280;1551;51.046;7.010;2023-03-15T07:19:57;100945.44;;;5.37;86.63
3082;BME280;1551;51.046;7.010;2023-03-15T07:22:46;100940.19;;;5.25;85.86
3082;BME280;1551;51.046;7.010;2023-03-15T07:25:35;100948.59;;;5.22;85.47
3082;BME280;1551;51.046;7.010;2023-03-15T07:28:24;100962.97;;;5.22;85.69
3082;BME280;1551;51.046;7.010;2023-03-15T07:31:14;100958.72;;;5.21;85.59
3082;BME280;1551;51.046;7.010;2023-03-15T07:34:03;100949.47;;;5.24;85.84
3082;BME280;1551;51.046;7.010;2023-03-15T07:36:52;100958.91;;;5.33;86.13
3082;BME280;1551;51.046;7.010;2023-03-15T07:39:41;100976.72;;;5.36;85.66
3082;BME280;1551;51.046;7.010;2023-03-15T07:42:30;100986.13;;;5.41;85.44
3082;BME280;1551;51.046;7.010;2023-03-15T07:45:22;100989.34;;;5.31;85.63
3082;BME280;1551;51.046;7.010;2023-03-15T07:48:11;100989.09;;;5.16;85.43
3082;BME280;1551;51.046;7.010;2023-03-15T07:51:00;100996.03;;;5.26;84.96
3082;BME280;1551;51.046;7.010;2023-03-15T07:53:49;101002.78;;;5.26;85.63
3082;BME280;1551;51.046;7.010;2023-03-15T07:56:39;100997.66;;;5.23;85.54
3082;BME280;1551;51.046;7.010;2023-03-15T07:59:28;101006.25;;;5.31;85.75
3082;BME280;1551;51.046;7.010;2023-03-15T08:02:17;101014.72;;;5.33;85.44
3082;BME280;1551;51.046;7.010;2023-03-15T08:05:06;101016.47;;;5.34;84.83
3082;BME280;1551;51.046;7.010;2023-03-15T08:07:56;101020.03;;;5.46;85.13
3082;BME280;1551;51.046;7.010;2023-03-15T08:10:44;101022.53;;;5.43;85.18
3082;BME280;1551;51.046;7.010;2023-03-15T08:13:33;101031.78;;;5.40;84.53
3082;BME280;1551;51.046;7.010;2023-03-15T08:16:23;101031.63;;;5.31;84.97
3082;BME280;1551;51.046;7.010;2023-03-15T08:19:12;101035.88;;;5.32;85.65
3082;BME280;1551;51.046;7.010;2023-03-15T08:22:01;101047.19;;;5.50;85.00
3082;BME280;1551;51.046;7.010;2023-03-15T08:24:50;101055.06;;;5.67;85.16
3082;BME280;1551;51.046;7.010;2023-03-15T08:27:41;101054.22;;;5.68;84.91
3082;BME280;1551;51.046;7.010;2023-03-15T08:30:30;101058.91;;;5.96;85.10
3082;BME280;1551;51.046;7.010;2023-03-15T08:33:19;101067.66;;;6.15;83.90
3082;BME280;1551;51.046;7.010;2023-03-15T08:36:09;101067.84;;;6.29;84.33
3082;BME280;1551;51.046;7.010;2023-03-15T08:38:58;101068.78;;;6.35;83.57
3082;BME280;1551;51.046;7.010;2023-03-15T08:41:48;101075.66;;;6.42;83.15
3082;BME280;1551;51.046;7.010;2023-03-15T08:44:37;101074.97;;;6.55;82.72
3082;BME280;1551;51.046;7.010;2023-03-15T08:47:27;101081.22;;;6.83;82.11
3082;BME280;1551;51.046;7.010;2023-03-15T08:50:16;101084.72;;;6.91;81.88
3082;BME280;1551;51.046;7.010;2023-03-15T08:53:05;101085.69;;;7.02;81.50
3082;BME280;1551;51.046;7.010;2023-03-15T08:55:54;101089.13;;;7.09;80.99
3082;BME280;1551;51.046;7.010;2023-03-15T08:58:43;101088.31;;;7.10;79.98
3082;BME280;1551;51.046;7.010;2023-03-15T09:01:32;101103.00;;;7.36;79.50
3082;BME280;1551;51.046;7.010;2023-03-15T09:04:22;101104.09;;;7.62;78.27
3082;BME280;1551;51.046;7.010;2023-03-15T09:07:11;101110.03;;;7.63;77.28
3082;BME280;1551;51.046;7.010;2023-03-15T09:10:01;101109.91;;;7.49;77.19
3082;BME280;1551;51.046;7.010;2023-03-15T09:12:52;101113.56;;;7.79;77.18
3082;BME280;1551;51.046;7.010;2023-03-15T09:15:41;101116.44;;;8.25;77.02
3082;BME280;1551;51.046;7.010;2023-03-15T09:18:31;101116.63;;;8.54;74.52
3082;BME280;1551;51.046;7.010;2023-03-15T09:21:19;101118.59;;;9.31;73.26
3082;BME280;1551;51.046;7.010;2023-03-15T09:24:08;101109.28;;;9.61;70.52
3082;BME280;1551;51.046;7.010;2023-03-15T09:26:57;101121.81;;;8.69;70.17
3082;BME280;1551;51.046;7.010;2023-03-15T09:29:46;101114.00;;;8.36;71.73
3082;BME280;1551;51.046;7.010;2023-03-15T09:32:35;101127.41;;;8.14;71.36
3082;BME280;1551;51.046;7.010;2023-03-15T09:35:24;101125.47;;;7.78;71.92
3082;BME280;1551;51.046;7.010;2023-03-15T09:38:13;101130.44;;;7.66;72.33
3082;BME280;1551;51.046;7.010;2023-03-15T09:41:02;101131.00;;;8.34;70.67
3082;BME280;1551;51.046;7.010;2023-03-15T09:47:30;101141.66;;;10.43;64.90
3082;BME280;1551;51.046;7.010;2023-03-15T09:50:32;101147.47;;;10.90;62.64
3082;BME280;1551;51.046;7.010;2023-03-15T09:53:27;101145.47;;;11.46;60.64
3082;BME280;1551;51.046;7.010;2023-03-15T09:56:39;101139.94;;;12.02;59.17
3082;BME280;1551;51.046;7.010;2023-03-15T09:59:36;101143.13;;;13.01;56.52
3082;BME280;1551;51.046;7.010;2023-03-15T10:02:29;101124.84;;;13.26;55.00
3082;BME280;1551;51.046;7.010;2023-03-15T10:05:23;101141.44;;;14.15;52.27
3082;BME280;1551;51.046;7.010;2023-03-15T10:08:16;101145.31;;;14.83;50.26
3082;BME280;1551;51.046;7.010;2023-03-15T10:15:22;101139.75;;;15.02;46.88
3082;BME280;1551;51.046;7.010;2023-03-15T10:18:16;101141.66;;;15.71;45.68
3082;BME280;1551;51.046;7.010;2023-03-15T10:21:15;101144.72;;;16.85;43.59
3082;BME280;1551;51.046;7.010;2023-03-15T10:24:13;101143.66;;;16.90;42.07
3082;BME280;1551;51.046;7.010;2023-03-15T10:27:30;101141.94;;;18.02;42.62
3082;BME280;1551;51.046;7.010;2023-03-15T10:30:26;101149.09;;;18.20;39.95
3082;BME280;1551;51.046;7.010;2023-03-15T10:33:25;101146.47;;;18.46;38.22
3082;BME280;1551;51.046;7.010;2023-03-15T10:36:21;101162.47;;;19.05;36.27
3082;BME280;1551;51.046;7.010;2023-03-15T10:39:11;101152.66;;;17.36;35.93
3082;BME280;1551;51.046;7.010;2023-03-15T10:42:01;101155.97;;;16.82;39.60
3082;BME280;1551;51.046;7.010;2023-03-15T10:44:51;101152.88;;;17.57;37.30
3082;BME280;1551;51.046;7.010;2023-03-15T10:47:44;101156.44;;;17.81;35.64
3082;BME280;1551;51.046;7.010;2023-03-15T10:50:33;101153.47;;;17.65;37.50
3082;BME280;1551;51.046;7.010;2023-03-15T10:53:22;101146.84;;;17.29;37.09
3082;BME280;1551;51.046;7.010;2023-03-15T10:56:22;101149.66;;;14.81;40.90
3082;BME280;1551;51.046;7.010;2023-03-15T11:03:23;101152.69;;;19.78;34.82
3082;BME280;1551;51.046;7.010;2023-03-15T11:06:19;101160.94;;;20.70;31.64
3082;BME280;1551;51.046;7.010;2023-03-15T11:09:12;101169.41;;;20.34;31.14
3082;BME280;1551;51.046;7.010;2023-03-15T11:12:04;101166.13;;;17.47;32.98
3082;BME280;1551;51.046;7.010;2023-03-15T11:15:08;101161.81;;;18.01;33.74
3082;BME280;1551;51.046;7.010;2023-03-15T11:18:01;101162.41;;;16.35;36.33
3082;BME280;1551;51.046;7.010;2023-03-15T11:20:50;101158.13;;;15.27;36.96
3082;BME280;1551;51.046;7.010;2023-03-15T11:23:45;101176.31;;;14.32;38.68
3082;BME280;1551;51.046;7.010;2023-03-15T11:26:37;101175.63;;;13.04;39.65
3082;BME280;1551;51.046;7.010;2023-03-15T11:32:20;101178.91;;;15.96;38.84
3082;BME280;1551;51.046;7.010;2023-03-15T11:35:21;101192.16;;;18.73;34.72
3082;BME280;1551;51.046;7.010;2023-03-15T11:38:34;101188.03;;;19.82;31.50
3082;BME280;1551;51.046;7.010;2023-03-15T11:41:50;101196.78;;;20.63;30.95
3082;BME280;1551;51.046;7.010;2023-03-15T11:44:46;101192.91;;;19.89;31.72
3082;BME280;1551;51.046;7.010;2023-03-15T11:47:42;101206.50;;;20.78;28.94
3082;BME280;1551;51.046;7.010;2023-03-15T11:50:35;101210.44;;;20.87;28.03
3082;BME280;1551;51.046;7.010;2023-03-15T11:53:30;101202.34;;;18.79;30.08
3082;BME280;1551;51.046;7.010;2023-03-15T11:56:28;101197.91;;;17.23;32.32
3082;BME280;1551;51.046;7.010;2023-03-15T11:59:35;101205.50;;;16.67;33.20
3082;BME280;1551;51.046;7.010;2023-03-15T12:05:41;101216.63;;;14.36;35.60
3082;BME280;1551;51.046;7.010;2023-03-15T12:08:50;101210.91;;;13.60;36.87
3082;BME280;1551;51.046;7.010;2023-03-15T12:11:40;101213.66;;;13.46;37.55
3082;BME280;1551;51.046;7.010;2023-03-15T12:14:31;101214.31;;;17.51;33.68
3082;BME280;1551;51.046;7.010;2023-03-15T12:29:02;101182.97;;;17.03;34.64
3082;BME280;1551;51.046;7.010;2023-03-15T12:34:54;101199.78;;;19.90;29.85
3082;BME280;1551;51.046;7.010;2023-03-15T12:37:45;101211.28;;;21.80;28.58
3082;BME280;1551;51.046;7.010;2023-03-15T12:40:47;101207.47;;;22.57;26.47
3082;BME280;1551;51.046;7.010;2023-03-15T12:43:42;101208.66;;;20.28;28.24
3082;BME280;1551;51.046;7.010;2023-03-15T12:49:38;101199.44;;;18.64;29.49
3082;BME280;1551;51.046;7.010;2023-03-15T12:52:39;101205.84;;;16.87;32.21
3082;BME280;1551;51.046;7.010;2023-03-15T12:55:33;101200.13;;;18.18;31.74
3082;BME280;1551;51.046;7.010;2023-03-15T12:58:30;101203.28;;;21.12;27.63
3082;BME280;1551;51.046;7.010;2023-03-15T13:01:22;101205.44;;;20.82;27.20
3082;BME280;1551;51.046;7.010;2023-03-15T13:04:14;101204.50;;;20.03;27.48
3082;BME280;1551;51.046;7.010;2023-03-15T13:07:13;101198.03;;;20.93;28.45
3082;BME280;1551;51.046;7.010;2023-03-15T13:10:20;101196.25;;;22.73;25.78
3082;BME280;1551;51.046;7.010;2023-03-15T13:13:36;101205.59;;;23.09;24.57
3082;BME280;1551;51.046;7.010;2023-03-15T13:19:37;101187.72;;;23.80;23.27
3082;BME280;1551;51.046;7.010;2023-03-15T13:22:35;101201.69;;;24.10;23.03
3082;BME280;1551;51.046;7.010;2023-03-15T13:25:46;101203.22;;;23.05;22.65
3082;BME280;1551;51.046;7.010;2023-03-15T13:28:41;101202.09;;;23.57;22.81
3082;BME280;1551;51.046;7.010;2023-03-15T13:31:34;101203.81;;;22.62;22.38
3082;BME280;1551;51.046;7.010;2023-03-15T13:34:23;101193.28;;;22.46;23.08
3082;BME280;1551;51.046;7.010;2023-03-15T13:37:23;101197.44;;;23.31;22.07
3082;BME280;1551;51.046;7.010;2023-03-15T13:40:22;101200.03;;;24.53;21.57
3082;BME280;1551;51.046;7.010;2023-03-15T13:43:11;101199.31;;;24.06;21.76
3082;BME280;1551;51.046;7.010;2023-03-15T13:46:01;101195.25;;;22.75;21.44
3082;BME280;1551;51.046;7.010;2023-03-15T13:48:52;101196.81;;;22.62;21.79
3082;BME280;1551;51.046;7.010;2023-03-15T13:51:42;101174.34;;;22.08;22.08
3082;BME280;1551;51.046;7.010;2023-03-15T13:54:32;101205.94;;;23.19;22.55
3082;BME280;1551;51.046;7.010;2023-03-15T13:57:22;101196.84;;;23.88;21.61
3082;BME280;1551;51.046;7.010;2023-03-15T14:00:14;101203.78;;;23.43;21.90
3082;BME280;1551;51.046;7.010;2023-03-15T14:03:12;101200.94;;;22.83;21.76
3082;BME280;1551;51.046;7.010;2023-03-15T14:06:02;101199.66;;;22.23;22.46
3082;BME280;1551;51.046;7.010;2023-03-15T14:08:58;101197.97;;;22.89;22.62
3082;BME280;1551;51.046;7.010;2023-03-15T14:12:05;101214.03;;;21.42;22.40
3082;BME280;1551;51.046;7.010;2023-03-15T14:14:57;101207.66;;;19.67;24.15
3082;BME280;1551;51.046;7.010;2023-03-15T14:18:03;101209.97;;;18.59;25.17
3082;BME280;1551;51.046;7.010;2023-03-15T14:21:05;101219.31;;;19.36;25.05
3082;BME280;1551;51.046;7.010;2023-03-15T14:23:55;101201.91;;;18.67;25.06
3082;BME280;1551;51.046;7.010;2023-03-15T14:26:50;101201.19;;;19.99;24.71
3082;BME280;1551;51.046;7.010;2023-03-15T14:29:52;101206.38;;;20.21;24.85
3082;BME280;1551;51.046;7.010;2023-03-15T14:32:51;101208.34;;;20.56;23.81
3082;BME280;1551;51.046;7.010;2023-03-15T14:35:42;101215.94;;;20.19;24.61
3082;BME280;1551;51.046;7.010;2023-03-15T14:38:37;101214.06;;;20.44;24.66
3082;BME280;1551;51.046;7.010;2023-03-15T14:44:16;101213.59;;;18.78;26.83
3082;BME280;1551;51.046;7.010;2023-03-15T14:47:15;101227.84;;;18.67;26.69
3082;BME280;1551;51.046;7.010;2023-03-15T14:50:12;101229.56;;;17.31;27.75
3082;BME280;1551;51.046;7.010;2023-03-15T14:53:03;101220.88;;;17.33;28.64
3082;BME280;1551;51.046;7.010;2023-03-15T14:55:53;101233.88;;;17.32;28.08
3082;BME280;1551;51.046;7.010;2023-03-15T14:58:42;101233.38;;;17.19;28.75
3082;BME280;1551;51.046;7.010;2023-03-15T15:01:30;101238.72;;;16.82;29.71
3082;BME280;1551;51.046;7.010;2023-03-15T15:04:21;101221.31;;;16.21;29.68
3082;BME280;1551;51.046;7.010;2023-03-15T15:07:12;101231.72;;;15.83;30.89
3082;BME280;1551;51.046;7.010;2023-03-15T15:10:01;101241.59;;;15.64;30.78
3082;BME280;1551;51.046;7.010;2023-03-15T15:12:50;101227.88;;;14.78;31.90
3082;BME280;1551;51.046;7.010;2023-03-15T15:15:39;101218.59;;;14.68;31.79
3082;BME280;1551;51.046;7.010;2023-03-15T15:18:31;101237.44;;;14.72;31.44
3082;BME280;1551;51.046;7.010;2023-03-15T15:21:27;101239.50;;;14.53;32.43
3082;BME280;1551;51.046;7.010;2023-03-15T15:24:19;101231.81;;;14.50;32.27
3082;BME280;1551;51.046;7.010;2023-03-15T15:27:09;101219.72;;;14.54;31.10
3082;BME280;1551;51.046;7.010;2023-03-15T15:29:58;101233.09;;;14.74;31.37
3082;BME280;1551;51.046;7.010;2023-03-15T15:32:47;101229.63;;;14.27;32.87
3082;BME280;1551;51.046;7.010;2023-03-15T15:35:37;101234.69;;;13.77;33.74
3082;BME280;1551;51.046;7.010;2023-03-15T15:38:30;101227.50;;;13.38;34.12
3082;BME280;1551;51.046;7.010;2023-03-15T15:41:27;101206.06;;;13.39;35.00
3082;BME280;1551;51.046;7.010;2023-03-15T15:44:21;101216.06;;;13.60;35.10
3082;BME280;1551;51.046;7.010;2023-03-15T15:47:11;101227.28;;;13.54;34.47
3082;BME280;1551;51.046;7.010;2023-03-15T15:50:00;101219.94;;;13.26;34.45
3082;BME280;1551;51.046;7.010;2023-03-15T15:52:51;101211.44;;;13.21;34.74
3082;BME280;1551;51.046;7.010;2023-03-15T15:55:40;101223.31;;;13.31;35.23
3082;BME280;1551;51.046;7.010;2023-03-15T15:58:29;101213.66;;;12.73;34.70
3082;BME280;1551;51.046;7.010;2023-03-15T16:01:18;101207.69;;;12.71;35.32
3082;BME280;1551;51.046;7.010;2023-03-15T16:04:07;101208.63;;;12.66;35.14
3082;BME280;1551;51.046;7.010;2023-03-15T16:06:58;101206.13;;;12.58;35.04
3082;BME280;1551;51.046;7.010;2023-03-15T16:09:51;101198.44;;;12.58;35.15
3082;BME280;1551;51.046;7.010;2023-03-15T16:12:44;101196.97;;;12.33;34.86
3082;BME280;1551;51.046;7.010;2023-03-15T16:15:33;101201.28;;;12.26;35.72
3082;BME280;1551;51.046;7.010;2023-03-15T16:18:22;101205.47;;;12.39;34.87
3082;BME280;1551;51.046;7.010;2023-03-15T16:21:17;101192.59;;;12.41;35.02
3082;BME280;1551;51.046;7.010;2023-03-15T16:24:25;101207.97;;;12.44;35.09
3082;BME280;1551;51.046;7.010;2023-03-15T16:27:16;101206.47;;;12.20;34.61